createdAt,value
2019-05-19T00:00:52.173Z,16.43
2019-05-19T00:01:52.626Z,16.39
2019-05-19T00:02:53.055Z,16.32
2019-05-19T00:03:53.478Z,16.24
2019-05-19T00:04:53.910Z,16.26
2019-05-19T00:05:54.356Z,16.31
2019-05-19T00:06:54.786Z,16.17
2019-05-19T00:07:55.209Z,16.15
2019-05-19T00:08:55.684Z,16.24
2019-05-19T00:09:56.092Z,16.23
2019-05-19T00:10:56.535Z,16.28
2019-05-19T00:11:56.959Z,16.28
2019-05-19T00:12:57.386Z,16.24
2019-05-19T00:13:57.805Z,16.13
2019-05-19T00:14:58.298Z,16.20
2019-05-19T00:15:58.687Z,16.17
2019-05-19T00:16:59.123Z,16.26
2019-05-19T00:17:59.558Z,16.16
2019-05-19T00:18:59.975Z,16.20
2019-05-19T00:20:00.417Z,16.28
2019-05-19T00:21:00.871Z,16.23
2019-05-19T00:22:01.272Z,16.29
2019-05-19T00:23:01.718Z,16.26
2019-05-19T00:24:02.146Z,16.26
2019-05-19T00:25:02.607Z,16.38
2019-05-19T00:26:03.033Z,16.26
2019-05-19T00:27:03.451Z,16.26
2019-05-19T00:28:03.873Z,16.24
2019-05-19T00:29:04.315Z,16.26
2019-05-19T00:30:04.846Z,16.23
2019-05-19T00:31:05.219Z,16.13
2019-05-19T00:32:05.642Z,16.21
2019-05-19T00:33:06.078Z,16.13
2019-05-19T00:34:06.487Z,16.08
2019-05-19T00:35:06.944Z,15.98
2019-05-19T00:36:07.362Z,16.12
2019-05-19T00:37:07.792Z,16.02
2019-05-19T00:38:08.226Z,16.00
2019-05-19T00:39:08.650Z,16.08
2019-05-19T00:40:09.090Z,16.02
2019-05-19T00:41:09.543Z,16.09
2019-05-19T00:42:10.008Z,16.12
2019-05-19T00:43:10.463Z,16.04
2019-05-19T00:44:10.817Z,16.12
2019-05-19T00:45:11.299Z,16.09
2019-05-19T00:46:11.689Z,16.15
2019-05-19T00:47:12.115Z,16.13
2019-05-19T00:48:13.209Z,16.13
2019-05-19T00:49:12.982Z,16.05
2019-05-19T00:50:13.433Z,16.09
2019-05-19T00:51:13.849Z,16.08
2019-05-19T00:52:14.294Z,16.04
2019-05-19T00:53:14.727Z,16.02
2019-05-19T00:54:15.145Z,16.13
2019-05-19T00:55:15.604Z,16.04
2019-05-19T00:56:16.060Z,16.00
2019-05-19T00:57:16.476Z,16.00
2019-05-19T00:58:17.577Z,16.04
2019-05-19T00:59:17.312Z,16.08
2019-05-19T01:00:17.763Z,16.05
2019-05-19T01:01:18.179Z,16.05
2019-05-19T01:02:18.622Z,16.09
2019-05-19T01:03:19.111Z,16.04
2019-05-19T01:04:19.482Z,16.04
2019-05-19T01:05:20.860Z,15.94
2019-05-19T01:06:20.376Z,15.97
2019-05-19T01:07:20.823Z,16.01
2019-05-19T01:08:21.228Z,15.98
2019-05-19T01:09:21.654Z,16.13
2019-05-19T01:10:22.193Z,16.17
2019-05-19T01:11:22.574Z,16.13
2019-05-19T01:12:22.954Z,16.09
2019-05-19T01:13:23.380Z,16.12
2019-05-19T01:14:23.833Z,16.12
2019-05-19T01:15:24.268Z,16.15
2019-05-19T01:16:24.688Z,16.04
2019-05-19T01:17:25.125Z,16.09
2019-05-19T01:18:25.568Z,16.04
2019-05-19T01:19:25.982Z,15.94
2019-05-19T01:20:26.419Z,15.95
2019-05-19T01:21:26.856Z,15.90
2019-05-19T01:22:27.431Z,15.91
2019-05-19T01:23:27.735Z,15.94
2019-05-19T01:24:28.190Z,15.95
2019-05-19T01:27:04.698Z,15.95
2019-05-19T01:28:05.142Z,15.95
2019-05-19T01:29:05.566Z,15.97
2019-05-19T01:30:05.996Z,15.94
2019-05-19T01:31:06.428Z,16.01
2019-05-19T01:32:06.854Z,16.02
2019-05-19T01:33:07.311Z,16.01
2019-05-19T01:34:07.736Z,16.01
2019-05-19T01:35:08.162Z,16.04
2019-05-19T01:36:08.605Z,16.02
2019-05-19T01:37:10.958Z,15.98
2019-05-19T01:38:09.456Z,16.16
2019-05-19T01:39:09.888Z,16.05
2019-05-19T01:40:10.335Z,16.04
2019-05-19T01:41:10.757Z,16.02
2019-05-19T01:42:11.185Z,16.00
2019-05-19T01:43:15.436Z,16.04
2019-05-19T01:44:12.063Z,16.10
2019-05-19T01:45:12.511Z,16.04
2019-05-19T01:46:12.951Z,15.97
2019-05-19T01:47:13.367Z,15.91
2019-05-19T01:48:13.786Z,15.91
2019-05-19T01:49:15.956Z,15.92
2019-05-19T01:50:18.133Z,15.91
2019-05-19T01:51:15.088Z,15.92
2019-05-19T01:52:15.523Z,15.90
2019-05-19T01:53:15.955Z,15.84
2019-05-19T01:54:16.865Z,15.90
2019-05-19T01:55:16.819Z,15.91
2019-05-19T01:56:17.253Z,15.91
2019-05-19T01:57:17.682Z,15.90
2019-05-19T01:58:18.139Z,15.88
2019-05-19T01:59:18.614Z,15.72
2019-05-19T02:00:19.021Z,15.84
2019-05-19T02:01:19.426Z,15.91
2019-05-19T02:02:21.446Z,15.80
2019-05-19T02:03:20.288Z,15.88
2019-05-19T02:04:20.731Z,15.72
2019-05-19T02:05:21.162Z,15.82
2019-05-19T02:06:21.603Z,15.68
2019-05-19T02:07:22.034Z,15.73
2019-05-19T02:08:22.449Z,15.68
2019-05-19T02:09:22.937Z,15.68
2019-05-19T02:10:23.319Z,15.73
2019-05-19T02:11:23.764Z,15.72
2019-05-19T02:12:24.180Z,15.72
2019-05-19T02:13:24.622Z,15.65
2019-05-19T02:14:25.051Z,15.62
2019-05-19T02:15:25.484Z,15.57
2019-05-19T02:16:25.924Z,15.64
2019-05-19T02:17:26.351Z,15.61
2019-05-19T02:18:26.795Z,15.47
2019-05-19T02:19:27.231Z,15.57
2019-05-19T02:20:33.392Z,15.51
2019-05-19T02:21:28.077Z,15.58
2019-05-19T02:22:28.512Z,15.55
2019-05-19T02:23:28.946Z,15.57
2019-05-19T02:24:29.374Z,15.57
2019-05-19T02:25:29.808Z,15.49
2019-05-19T02:26:30.253Z,15.49
2019-05-19T02:27:30.676Z,15.49
2019-05-19T02:28:31.112Z,15.55
2019-05-19T02:29:31.542Z,15.52
2019-05-19T02:30:32.094Z,15.52
2019-05-19T02:31:32.404Z,15.57
2019-05-19T02:32:32.857Z,15.46
2019-05-19T02:33:35.922Z,15.46
2019-05-19T02:34:35.462Z,15.47
2019-05-19T02:35:34.160Z,15.43
2019-05-19T02:36:34.574Z,15.49
2019-05-19T02:37:35.014Z,15.44
2019-05-19T02:38:35.451Z,15.43
2019-05-19T02:39:35.869Z,15.57
2019-05-19T02:40:39.088Z,15.43
2019-05-19T02:41:36.731Z,15.47
2019-05-19T02:42:37.166Z,15.47
2019-05-19T02:43:37.599Z,15.43
2019-05-19T02:44:38.042Z,15.59
2019-05-19T02:45:38.467Z,15.59
2019-05-19T02:46:38.906Z,15.49
2019-05-19T02:47:39.330Z,15.59
2019-05-19T02:48:39.767Z,15.55
2019-05-19T02:49:40.201Z,15.64
2019-05-19T02:50:51.745Z,15.51
2019-05-19T02:51:41.061Z,15.52
2019-05-19T02:52:41.498Z,15.46
2019-05-19T02:53:41.929Z,15.64
2019-05-19T02:54:42.357Z,15.58
2019-05-19T02:55:42.793Z,15.55
2019-05-19T02:56:43.267Z,15.57
2019-05-19T02:57:43.661Z,15.61
2019-05-19T02:58:44.093Z,15.65
2019-05-19T02:59:44.571Z,15.73
2019-05-19T03:00:44.977Z,15.73
2019-05-19T03:01:45.394Z,15.82
2019-05-19T03:02:45.842Z,15.73
2019-05-19T03:03:46.263Z,15.75
2019-05-19T03:04:46.702Z,15.73
2019-05-19T03:05:47.153Z,15.70
2019-05-19T03:06:48.483Z,15.76
2019-05-19T03:07:47.989Z,15.55
2019-05-19T03:08:48.431Z,15.54
2019-05-19T03:09:48.853Z,15.57
2019-05-19T03:10:49.299Z,15.58
2019-05-19T03:11:49.734Z,15.46
2019-05-19T03:12:50.158Z,15.55
2019-05-19T03:13:54.486Z,15.52
2019-05-19T03:14:51.017Z,15.52
2019-05-19T03:15:51.454Z,15.46
2019-05-19T03:16:51.883Z,15.49
2019-05-19T03:17:52.318Z,15.54
2019-05-19T03:18:52.744Z,15.65
2019-05-19T03:19:53.229Z,15.59
2019-05-19T03:21:09.780Z,15.58
2019-05-19T03:23:27.672Z,15.58
2019-05-19T03:24:28.079Z,15.57
2019-05-19T03:26:22.662Z,15.58
2019-05-19T03:28:57.173Z,15.64
2019-05-19T03:29:57.598Z,15.59
2019-05-19T03:31:52.173Z,15.75
2019-05-19T03:32:52.586Z,15.73
2019-05-19T03:34:47.207Z,15.77
2019-05-19T03:35:47.589Z,15.80
2019-05-19T03:37:42.145Z,15.76
2019-05-19T03:38:42.569Z,15.80
2019-05-19T03:40:37.138Z,15.94
2019-05-19T03:41:37.570Z,15.91
2019-05-19T03:43:33.129Z,15.86
2019-05-19T03:44:33.546Z,15.95
2019-05-19T03:46:28.137Z,15.84
2019-05-19T03:47:28.562Z,15.94
2019-05-19T03:49:23.142Z,15.92
2019-05-19T03:50:23.567Z,16.02
2019-05-19T03:52:18.143Z,15.97
2019-05-19T03:53:18.564Z,16.08
2019-05-19T03:55:13.138Z,16.15
2019-05-19T03:56:13.569Z,16.08
2019-05-19T03:58:08.140Z,16.16
2019-05-19T03:59:08.567Z,16.28
2019-05-19T04:01:03.126Z,16.32
2019-05-19T04:02:03.574Z,16.36
2019-05-19T04:03:58.134Z,16.33
2019-05-19T04:04:58.557Z,16.33
2019-05-19T04:06:54.098Z,16.35
2019-05-19T04:07:54.537Z,16.35
2019-05-19T04:09:50.083Z,16.12
2019-05-19T04:10:50.510Z,16.28
2019-05-19T04:11:50.947Z,16.38
2019-05-19T04:12:51.386Z,16.23
2019-05-19T04:13:51.813Z,16.23
2019-05-19T04:14:52.244Z,16.23
2019-05-19T04:15:52.683Z,16.36
2019-05-19T04:16:53.111Z,16.31
2019-05-19T04:17:53.547Z,16.36
2019-05-19T04:18:53.985Z,16.32
2019-05-19T04:19:54.413Z,16.46
2019-05-19T04:20:54.851Z,16.39
2019-05-19T04:21:55.283Z,16.46
2019-05-19T04:22:55.726Z,16.49
2019-05-19T04:23:56.153Z,16.51
2019-05-19T04:24:56.579Z,16.49
2019-05-19T04:25:57.024Z,16.38
2019-05-19T04:26:57.453Z,16.47
2019-05-19T04:27:57.885Z,16.39
2019-05-19T04:28:58.323Z,16.58
2019-05-19T04:29:58.756Z,16.51
2019-05-19T04:30:59.189Z,16.65
2019-05-19T04:31:59.623Z,16.61
2019-05-19T04:33:00.049Z,16.53
2019-05-19T04:34:00.502Z,16.57
2019-05-19T04:35:00.925Z,16.65
2019-05-19T04:36:01.358Z,16.64
2019-05-19T04:37:01.792Z,16.50
2019-05-19T04:38:02.228Z,16.71
2019-05-19T04:39:02.679Z,16.79
2019-05-19T04:40:03.101Z,16.72
2019-05-19T04:41:03.528Z,16.84
2019-05-19T04:42:03.966Z,16.93
2019-05-19T04:43:04.398Z,16.90
2019-05-19T04:44:04.836Z,16.93
2019-05-19T04:45:05.270Z,16.96
2019-05-19T04:46:05.708Z,16.93
2019-05-19T04:47:06.135Z,16.96
2019-05-19T04:48:09.404Z,17.11
2019-05-19T04:49:07.012Z,17.08
2019-05-19T04:50:07.444Z,17.08
2019-05-19T04:51:07.882Z,17.16
2019-05-19T04:52:08.316Z,17.15
2019-05-19T04:53:08.759Z,17.22
2019-05-19T04:54:09.187Z,17.31
2019-05-19T04:55:09.618Z,17.44
2019-05-19T04:56:10.051Z,17.34
2019-05-19T04:57:10.492Z,17.38
2019-05-19T04:58:10.922Z,17.29
2019-05-19T04:59:11.356Z,17.39
2019-05-19T05:00:11.797Z,17.59
2019-05-19T05:01:12.227Z,17.65
2019-05-19T05:02:12.666Z,17.57
2019-05-19T05:03:13.104Z,17.54
2019-05-19T05:04:13.537Z,17.67
2019-05-19T05:05:13.981Z,17.56
2019-05-19T05:06:14.410Z,17.65
2019-05-19T05:07:14.852Z,17.57
2019-05-19T05:08:28.716Z,17.63
2019-05-19T05:09:15.715Z,17.68
2019-05-19T05:10:16.148Z,17.72
2019-05-19T05:11:16.588Z,17.57
2019-05-19T05:12:17.019Z,17.70
2019-05-19T05:13:17.452Z,17.64
2019-05-19T05:14:17.950Z,17.67
2019-05-19T05:15:18.330Z,17.82
2019-05-19T05:16:18.812Z,17.94
2019-05-19T05:17:19.203Z,17.97
2019-05-19T05:18:19.648Z,17.92
2019-05-19T05:19:20.073Z,18.03
2019-05-19T05:20:20.506Z,18.11
2019-05-19T05:21:20.957Z,18.00
2019-05-19T05:22:22.514Z,18.00
2019-05-19T05:23:21.819Z,18.04
2019-05-19T05:24:22.253Z,18.10
2019-05-19T05:25:22.694Z,18.05
2019-05-19T05:26:23.125Z,18.10
2019-05-19T05:27:23.572Z,17.86
2019-05-19T05:28:24.003Z,17.95
2019-05-19T05:29:24.442Z,17.97
2019-05-19T05:30:24.878Z,18.00
2019-05-19T05:31:25.309Z,18.13
2019-05-19T05:32:25.749Z,17.92
2019-05-19T05:33:26.184Z,18.03
2019-05-19T05:34:26.627Z,18.04
2019-05-19T05:35:27.059Z,18.22
2019-05-19T05:36:27.919Z,18.25
2019-05-19T05:37:27.931Z,18.22
2019-05-19T05:38:28.407Z,18.29
2019-05-19T05:39:28.809Z,18.52
2019-05-19T05:40:29.242Z,18.50
2019-05-19T05:41:29.686Z,18.50
2019-05-19T05:42:31.872Z,18.53
2019-05-19T05:43:30.555Z,18.34
2019-05-19T05:44:30.991Z,18.43
2019-05-19T05:45:31.455Z,18.50
2019-05-19T05:46:31.880Z,18.59
2019-05-19T05:47:32.301Z,18.66
2019-05-19T05:48:32.754Z,18.75
2019-05-19T05:49:33.189Z,18.84
2019-05-19T05:50:33.620Z,18.71
2019-05-19T05:51:34.058Z,18.59
2019-05-19T05:52:38.700Z,18.55
2019-05-19T05:53:34.927Z,18.63
2019-05-19T05:54:35.370Z,18.78
2019-05-19T05:55:35.807Z,18.96
2019-05-19T05:56:36.249Z,18.96
2019-05-19T05:57:36.685Z,19.02
2019-05-19T05:58:37.127Z,19.08
2019-05-19T05:59:37.559Z,18.98
2019-05-19T06:00:38.002Z,19.19
2019-05-19T06:01:38.442Z,18.92
2019-05-19T06:02:38.874Z,18.88
2019-05-19T06:03:39.308Z,19.07
2019-05-19T06:04:39.752Z,18.99
2019-05-19T06:05:40.199Z,19.16
2019-05-19T06:06:40.675Z,19.19
2019-05-19T06:07:41.073Z,18.95
2019-05-19T06:08:41.508Z,19.12
2019-05-19T06:09:41.947Z,19.07
2019-05-19T06:10:42.388Z,19.30
2019-05-19T06:11:42.822Z,19.27
2019-05-19T06:12:43.261Z,19.33
2019-05-19T06:13:43.705Z,19.51
2019-05-19T06:14:44.151Z,19.54
2019-05-19T06:15:44.581Z,19.56
2019-05-19T06:16:45.035Z,19.67
2019-05-19T06:17:45.457Z,19.84
2019-05-19T06:18:45.899Z,20.09
2019-05-19T06:19:46.336Z,20.21
2019-05-19T06:20:46.783Z,20.28
2019-05-19T06:21:47.209Z,20.56
2019-05-19T06:22:56.409Z,20.65
2019-05-19T06:23:48.103Z,20.92
2019-05-19T06:24:48.536Z,21.18
2019-05-19T06:25:49.015Z,21.75
2019-05-19T06:26:49.418Z,21.96
2019-05-19T06:27:49.861Z,22.78
2019-05-19T06:28:50.301Z,23.47
2019-05-19T06:29:50.743Z,23.46
2019-05-19T06:30:51.216Z,24.17
2019-05-19T06:31:51.633Z,24.23
2019-05-19T06:32:52.082Z,24.60
2019-05-19T06:33:52.518Z,24.40
2019-05-19T06:34:52.971Z,25.21
2019-05-19T06:35:53.420Z,25.93
2019-05-19T06:36:55.170Z,25.78
2019-05-19T06:37:54.308Z,26.28
2019-05-19T06:38:54.788Z,26.44
2019-05-19T06:39:55.206Z,26.66
2019-05-19T06:40:55.657Z,25.91
2019-05-19T06:41:56.112Z,26.68
2019-05-19T06:42:56.554Z,27.15
2019-05-19T06:43:57.000Z,27.70
2019-05-19T06:44:57.455Z,27.58
2019-05-19T06:45:57.901Z,27.55
2019-05-19T06:46:58.357Z,27.29
2019-05-19T06:47:58.808Z,27.07
2019-05-19T06:48:59.267Z,27.18
2019-05-19T06:49:59.715Z,27.20
2019-05-19T06:51:00.169Z,27.26
2019-05-19T06:52:00.617Z,26.88
2019-05-19T06:53:13.663Z,26.88
2019-05-19T06:54:01.520Z,27.71
2019-05-19T06:55:01.984Z,27.92
2019-05-19T06:56:02.443Z,28.37
2019-05-19T06:57:02.892Z,28.62
2019-05-19T06:58:03.342Z,28.70
2019-05-19T06:59:03.799Z,28.62
2019-05-19T07:00:04.267Z,28.56
2019-05-19T07:01:04.719Z,28.60
2019-05-19T07:02:05.166Z,29.05
2019-05-19T07:03:05.620Z,28.81
2019-05-19T07:04:06.084Z,28.78
2019-05-19T07:05:06.532Z,28.49
2019-05-19T07:06:06.990Z,28.54
2019-05-19T07:07:07.483Z,27.85
2019-05-19T07:08:07.906Z,27.27
2019-05-19T07:09:08.362Z,27.00
2019-05-19T07:10:08.815Z,27.03
2019-05-19T07:11:09.276Z,27.10
2019-05-19T07:12:09.738Z,27.67
2019-05-19T07:13:10.195Z,27.42
2019-05-19T07:14:10.653Z,27.05
2019-05-19T07:15:11.101Z,26.66
2019-05-19T07:16:11.559Z,26.55
2019-05-19T07:17:12.017Z,26.70
2019-05-19T07:18:12.498Z,26.83
2019-05-19T07:19:12.958Z,27.11
2019-05-19T07:20:13.396Z,27.44
2019-05-19T07:21:13.849Z,27.54
2019-05-19T07:22:14.303Z,27.67
2019-05-19T07:23:27.197Z,27.80
2019-05-19T07:24:15.224Z,27.67
2019-05-19T07:25:15.684Z,27.17
2019-05-19T07:26:16.144Z,27.15
2019-05-19T07:27:16.600Z,27.40
2019-05-19T07:28:17.065Z,27.89
2019-05-19T07:29:17.514Z,27.89
2019-05-19T07:30:17.968Z,27.67
2019-05-19T07:31:18.430Z,27.67
2019-05-19T07:32:18.887Z,27.67
2019-05-19T07:33:19.348Z,27.71
2019-05-19T07:34:19.810Z,27.68
2019-05-19T07:35:20.264Z,27.67
2019-05-19T07:36:20.725Z,27.78
2019-05-19T07:37:21.187Z,27.39
2019-05-19T07:38:21.648Z,28.10
2019-05-19T07:39:22.106Z,28.44
2019-05-19T07:40:22.578Z,28.82
2019-05-19T07:41:23.026Z,29.07
2019-05-19T07:42:23.488Z,29.23
2019-05-19T07:43:24.049Z,29.53
2019-05-19T07:44:24.409Z,29.79
2019-05-19T07:45:24.869Z,29.69
2019-05-19T07:46:25.550Z,29.35
2019-05-19T07:47:25.976Z,28.66
2019-05-19T07:48:38.396Z,28.60
2019-05-19T07:50:41.659Z,29.31
2019-05-19T07:51:41.985Z,29.50
2019-05-19T07:53:42.841Z,29.81
2019-05-19T07:54:37.051Z,29.82
2019-05-19T07:56:31.683Z,29.87
2019-05-19T07:57:32.144Z,30.05
2019-05-19T07:59:27.749Z,29.50
2019-05-19T08:00:28.210Z,29.61
2019-05-19T08:02:22.874Z,29.47
2019-05-19T08:03:23.298Z,29.56
2019-05-19T08:05:17.925Z,29.53
2019-05-19T08:06:18.385Z,29.97
2019-05-19T08:08:14.000Z,30.78
2019-05-19T08:09:14.456Z,31.20
2019-05-19T08:11:09.114Z,31.12
2019-05-19T08:12:09.558Z,30.66
2019-05-19T08:14:04.195Z,29.66
2019-05-19T08:15:04.658Z,29.27
2019-05-19T08:16:59.296Z,29.88
2019-05-19T08:17:59.752Z,29.78
2019-05-19T08:19:54.384Z,30.66
2019-05-19T08:20:54.850Z,30.05
2019-05-19T08:22:51.425Z,30.59
2019-05-19T08:23:59.893Z,30.47
2019-05-19T08:25:44.577Z,28.63
2019-05-19T08:26:45.032Z,28.26
2019-05-19T08:28:39.674Z,28.30
2019-05-19T08:29:40.120Z,28.38
2019-05-19T08:31:34.756Z,29.01
2019-05-19T08:32:35.216Z,28.94
2019-05-19T08:34:29.846Z,28.22
2019-05-19T08:35:30.301Z,28.02
2019-05-19T08:37:28.904Z,27.78
2019-05-19T08:38:29.360Z,28.07
2019-05-19T08:39:29.829Z,28.22
2019-05-19T08:40:30.297Z,28.88
2019-05-19T08:41:30.755Z,29.12
2019-05-19T08:42:31.210Z,29.51
2019-05-19T08:43:31.676Z,29.19
2019-05-19T08:44:32.147Z,29.26
2019-05-19T08:45:32.602Z,28.84
2019-05-19T08:46:33.069Z,29.14
2019-05-19T08:47:33.535Z,29.14
2019-05-19T08:48:33.993Z,29.44
2019-05-19T08:49:34.478Z,28.89
2019-05-19T08:50:34.925Z,29.53
2019-05-19T08:51:35.386Z,29.78
2019-05-19T08:52:35.850Z,30.23
2019-05-19T08:53:36.319Z,29.93
2019-05-19T08:54:36.780Z,30.57
2019-05-19T08:55:37.254Z,30.53
2019-05-19T08:56:37.711Z,30.85
2019-05-19T08:57:38.181Z,30.06
2019-05-19T08:58:38.639Z,29.45
2019-05-19T08:59:39.121Z,29.17
2019-05-19T09:00:39.577Z,29.19
2019-05-19T09:01:40.046Z,29.13
2019-05-19T09:02:40.526Z,28.91
2019-05-19T09:03:40.978Z,30.12
2019-05-19T09:04:41.443Z,30.40
2019-05-19T09:05:41.911Z,30.09
2019-05-19T09:06:42.375Z,30.25
2019-05-19T09:07:42.852Z,30.03
2019-05-19T09:08:43.307Z,29.84
2019-05-19T09:09:43.777Z,29.94
2019-05-19T09:10:44.241Z,30.27
2019-05-19T09:11:47.767Z,30.55
2019-05-19T09:12:45.174Z,31.21
2019-05-19T09:13:45.647Z,30.50
2019-05-19T09:14:46.108Z,29.41
2019-05-19T09:15:46.574Z,29.32
2019-05-19T09:16:47.038Z,29.34
2019-05-19T09:17:47.507Z,28.91
2019-05-19T09:18:47.977Z,28.48
2019-05-19T09:19:48.437Z,29.12
2019-05-19T09:20:48.917Z,29.75
2019-05-19T09:21:49.371Z,29.95
2019-05-19T09:22:49.835Z,30.31
2019-05-19T09:23:50.305Z,30.70
2019-05-19T09:24:50.765Z,31.28
2019-05-19T09:25:51.239Z,31.39
2019-05-19T09:26:52.538Z,30.12
2019-05-19T09:27:52.161Z,31.37
2019-05-19T09:28:52.634Z,32.40
2019-05-19T09:29:53.106Z,31.42
2019-05-19T09:30:53.594Z,31.10
2019-05-19T09:31:54.071Z,31.43
2019-05-19T09:32:55.160Z,31.93
2019-05-19T09:33:55.907Z,31.74
2019-05-19T09:34:55.443Z,32.11
2019-05-19T09:35:56.027Z,32.78
2019-05-19T09:36:56.378Z,33.76
2019-05-19T09:37:56.855Z,32.92
2019-05-19T09:38:57.326Z,33.24
2019-05-19T09:39:57.797Z,32.87
2019-05-19T09:40:58.266Z,32.90
2019-05-19T09:41:58.741Z,33.11
2019-05-19T09:42:59.247Z,32.93
2019-05-19T09:43:59.720Z,32.95
2019-05-19T09:45:00.158Z,32.68
2019-05-19T09:46:00.628Z,33.20
2019-05-19T09:47:01.099Z,33.34
2019-05-19T09:48:01.574Z,33.92
2019-05-19T09:49:02.045Z,33.98
2019-05-19T09:50:02.521Z,31.84
2019-05-19T09:51:02.989Z,32.71
2019-05-19T09:52:03.471Z,34.24
2019-05-19T09:53:03.980Z,34.73
2019-05-19T09:54:04.415Z,34.62
2019-05-19T09:55:05.120Z,33.68
2019-05-19T09:56:05.360Z,33.81
2019-05-19T09:57:05.874Z,34.14
2019-05-19T09:58:06.305Z,31.62
2019-05-19T09:59:06.775Z,32.60
2019-05-19T10:00:07.248Z,34.16
2019-05-19T10:01:07.720Z,33.58
2019-05-19T10:02:08.226Z,31.59
2019-05-19T10:03:08.666Z,31.17
2019-05-19T10:04:09.143Z,30.72
2019-05-19T10:05:09.611Z,31.52
2019-05-19T10:06:10.087Z,31.96
2019-05-19T10:07:10.605Z,31.42
2019-05-19T10:08:11.059Z,32.29
2019-05-19T10:09:11.507Z,32.45
2019-05-19T10:10:11.977Z,31.94
2019-05-19T10:11:12.450Z,32.29
2019-05-19T10:12:12.916Z,32.45
2019-05-19T10:13:13.403Z,32.29
2019-05-19T10:14:13.864Z,33.02
2019-05-19T10:15:14.331Z,32.19
2019-05-19T10:16:14.802Z,31.33
2019-05-19T10:17:15.306Z,31.29
2019-05-19T10:18:15.751Z,31.12
2019-05-19T10:19:16.212Z,32.14
2019-05-19T10:20:16.684Z,32.15
2019-05-19T10:21:17.161Z,33.20
2019-05-19T10:22:17.623Z,33.19
2019-05-19T10:23:18.095Z,33.83
2019-05-19T10:24:18.635Z,34.18
2019-05-19T10:25:22.305Z,33.99
2019-05-19T10:26:19.511Z,33.79
2019-05-19T10:27:21.746Z,33.62
2019-05-19T10:28:20.454Z,33.34
2019-05-19T10:29:20.930Z,33.98
2019-05-19T10:30:21.400Z,34.60
2019-05-19T10:31:21.872Z,34.05
2019-05-19T10:32:22.357Z,34.17
2019-05-19T10:33:22.827Z,35.05
2019-05-19T10:34:23.295Z,34.90
2019-05-19T10:35:23.770Z,34.81
2019-05-19T10:36:24.234Z,34.10
2019-05-19T10:37:24.723Z,34.32
2019-05-19T10:38:25.188Z,33.43
2019-05-19T10:39:25.668Z,33.53
2019-05-19T10:40:26.137Z,32.14
2019-05-19T10:41:26.613Z,32.60
2019-05-19T10:42:27.089Z,32.74
2019-05-19T10:43:27.560Z,31.74
2019-05-19T10:44:28.037Z,31.59
2019-05-19T10:45:28.507Z,30.96
2019-05-19T10:46:28.989Z,31.39
2019-05-19T10:47:29.456Z,31.06
2019-05-19T10:48:29.930Z,31.42
2019-05-19T10:49:30.396Z,32.07
2019-05-19T10:50:30.865Z,32.64
2019-05-19T10:51:31.351Z,33.23
2019-05-19T10:52:31.860Z,32.48
2019-05-19T10:53:32.310Z,32.55
2019-05-19T10:54:32.759Z,33.08
2019-05-19T10:55:36.379Z,33.42
2019-05-19T10:56:33.692Z,33.84
2019-05-19T10:57:34.176Z,32.86
2019-05-19T10:58:34.665Z,33.83
2019-05-19T10:59:35.155Z,33.07
2019-05-19T11:00:35.592Z,31.80
2019-05-19T11:01:36.114Z,31.18
2019-05-19T11:02:36.534Z,31.36
2019-05-19T11:03:37.037Z,31.39
2019-05-19T11:04:37.481Z,31.69
2019-05-19T11:05:37.943Z,31.65
2019-05-19T11:06:38.423Z,30.68
2019-05-19T11:07:38.885Z,31.03
2019-05-19T11:08:39.362Z,32.16
2019-05-19T11:09:39.823Z,32.43
2019-05-19T11:10:40.300Z,32.74
2019-05-19T11:11:40.774Z,32.34
2019-05-19T11:12:41.263Z,32.16
2019-05-19T11:13:41.707Z,32.08
2019-05-19T11:14:42.173Z,32.00
2019-05-19T11:15:42.654Z,32.11
2019-05-19T11:16:43.219Z,32.08
2019-05-19T11:17:43.615Z,32.33
2019-05-19T11:18:44.066Z,31.69
2019-05-19T11:19:44.536Z,31.29
2019-05-19T11:20:45.003Z,31.00
2019-05-19T11:21:45.475Z,30.19
2019-05-19T11:22:45.940Z,29.27
2019-05-19T11:23:46.408Z,29.65
2019-05-19T11:24:46.875Z,29.76
2019-05-19T11:25:51.454Z,30.87
2019-05-19T11:26:47.822Z,31.73
2019-05-19T11:27:48.327Z,31.14
2019-05-19T11:28:48.749Z,30.78
2019-05-19T11:29:49.252Z,31.25
2019-05-19T11:30:49.683Z,31.52
2019-05-19T11:31:50.144Z,30.96
2019-05-19T11:32:50.608Z,30.80
2019-05-19T11:33:51.076Z,30.08
2019-05-19T11:34:51.550Z,29.10
2019-05-19T11:35:52.011Z,28.54
2019-05-19T11:36:52.476Z,28.60
2019-05-19T11:37:52.928Z,28.45
2019-05-19T11:38:53.393Z,27.87
2019-05-19T11:39:53.855Z,27.74
2019-05-19T11:40:54.314Z,27.92
2019-05-19T11:41:54.769Z,27.89
2019-05-19T11:42:55.242Z,27.68
2019-05-19T11:43:55.694Z,27.37
2019-05-19T11:44:56.162Z,27.35
2019-05-19T11:45:56.601Z,27.14
2019-05-19T11:46:57.062Z,27.18
2019-05-19T11:47:57.514Z,27.47
2019-05-19T11:48:57.972Z,27.48
2019-05-19T11:49:58.425Z,27.49
2019-05-19T11:50:58.950Z,27.39
2019-05-19T11:51:59.333Z,27.35
2019-05-19T11:52:59.787Z,27.44
2019-05-19T11:54:00.242Z,27.14
2019-05-19T11:55:00.693Z,27.22
2019-05-19T11:56:06.609Z,27.11
2019-05-19T11:57:01.633Z,26.97
2019-05-19T11:58:02.097Z,26.99
2019-05-19T11:59:02.517Z,26.83
2019-05-19T12:00:02.957Z,26.89
2019-05-19T12:01:03.412Z,26.68
2019-05-19T12:02:03.858Z,26.78
2019-05-19T12:03:04.314Z,26.77
2019-05-19T12:04:04.784Z,26.84
2019-05-19T12:05:05.230Z,26.81
2019-05-19T12:06:05.686Z,26.84
2019-05-19T12:07:06.120Z,26.81
2019-05-19T12:08:06.576Z,26.56
2019-05-19T12:09:07.016Z,26.66
2019-05-19T12:10:07.467Z,26.66
2019-05-19T12:11:07.938Z,26.66
2019-05-19T12:12:08.369Z,26.75
2019-05-19T12:13:08.849Z,26.80
2019-05-19T12:14:09.271Z,26.77
2019-05-19T12:15:09.719Z,26.80
2019-05-19T12:16:10.165Z,26.77
2019-05-19T12:17:10.644Z,26.75
2019-05-19T12:18:11.070Z,26.73
2019-05-19T12:19:11.511Z,26.47
2019-05-19T12:20:11.969Z,26.15
2019-05-19T12:21:12.416Z,26.16
2019-05-19T12:22:12.859Z,26.19
2019-05-19T12:23:13.361Z,26.28
2019-05-19T12:24:13.762Z,26.38
2019-05-19T12:25:14.337Z,26.51
2019-05-19T12:26:23.318Z,26.58
2019-05-19T12:27:15.113Z,26.66
2019-05-19T12:28:15.559Z,26.51
2019-05-19T12:29:16.012Z,26.60
2019-05-19T12:30:16.454Z,26.43
2019-05-19T12:31:16.898Z,26.48
2019-05-19T12:32:17.354Z,26.59
2019-05-19T12:33:17.802Z,26.41
2019-05-19T12:34:18.244Z,26.41
2019-05-19T12:35:18.704Z,26.56
2019-05-19T12:36:19.150Z,26.44
2019-05-19T12:37:19.596Z,26.31
2019-05-19T12:38:20.038Z,26.26
2019-05-19T12:39:20.494Z,26.37
2019-05-19T12:40:22.715Z,26.26
2019-05-19T12:41:21.381Z,26.15
2019-05-19T12:42:21.840Z,26.00
2019-05-19T12:43:22.284Z,26.09
2019-05-19T12:44:22.723Z,26.21
2019-05-19T12:45:23.291Z,26.34
2019-05-19T12:46:23.632Z,26.43
2019-05-19T12:47:24.070Z,26.51
2019-05-19T12:48:24.520Z,26.55
2019-05-19T12:49:24.974Z,26.53
2019-05-19T12:50:25.425Z,26.70
2019-05-19T12:51:26.915Z,26.43
2019-05-19T12:52:26.314Z,26.34
2019-05-19T12:53:26.763Z,26.44
2019-05-19T12:54:27.235Z,26.53
2019-05-19T12:55:27.661Z,26.77
2019-05-19T12:56:39.190Z,26.90
2019-05-19T12:57:28.550Z,26.80
2019-05-19T12:58:29.003Z,26.83
2019-05-19T12:59:29.506Z,26.83
2019-05-19T13:00:29.904Z,26.88
2019-05-19T13:01:30.350Z,26.85
2019-05-19T13:02:30.795Z,26.73
2019-05-19T13:03:31.251Z,26.71
2019-05-19T13:04:31.693Z,26.75
2019-05-19T13:05:32.149Z,26.73
2019-05-19T13:06:32.608Z,26.89
2019-05-19T13:07:33.042Z,26.90
2019-05-19T13:08:33.493Z,26.77
2019-05-19T13:09:33.950Z,26.66
2019-05-19T13:10:34.403Z,26.52
2019-05-19T13:11:34.834Z,26.62
2019-05-19T13:12:35.284Z,26.71
2019-05-19T13:13:35.733Z,26.75
2019-05-19T13:14:36.183Z,26.66
2019-05-19T13:15:36.626Z,26.81
2019-05-19T13:16:37.082Z,26.52
2019-05-19T13:17:37.535Z,26.51
2019-05-19T13:18:37.978Z,26.53
2019-05-19T13:19:38.428Z,26.53
2019-05-19T13:20:38.882Z,26.68
2019-05-19T13:21:39.325Z,26.68
2019-05-19T13:22:39.772Z,26.58
2019-05-19T13:23:40.229Z,26.52
2019-05-19T13:24:40.675Z,26.44
2019-05-19T13:25:41.154Z,26.41
2019-05-19T13:26:55.518Z,26.71
2019-05-19T13:27:42.016Z,26.85
2019-05-19T13:28:42.466Z,27.05
2019-05-19T13:29:42.916Z,27.12
2019-05-19T13:30:43.785Z,26.74
2019-05-19T13:31:43.831Z,26.97
2019-05-19T13:32:44.259Z,26.83